WetterOnline ( https://www.wetteronline.ch )

Wetter aktuell Feldberger Seenlandschaft

Aktuelles Wetter: Feldberg (115m)

6-stündlich | Neueste Meldungen
Ortszeit Temperatur Wetter
Mo, 13.07. 8:00 15.1° C fast wolkenlos
Mo, 13.07. 2:00 9.9° C wolkenlos
So, 12.07. 20:00 16.2° C bedeckt
So, 12.07. 14:00 18.1° C wolkig
So, 12.07. 8:00 12.9° C wolkenlos
So, 12.07. 2:00 8.5° C leicht bewölkt
Sa, 11.07. 20:00 16.6° C wolkenlos
Sa, 11.07. 14:00 17.9° C bewölkt
Ortszeit Temperatur Wetter
Mo, 13.07. 9:00 16.2° C leicht bewölkt
Mo, 13.07. 8:50 16.2° C leicht bewölkt
Mo, 13.07. 8:40 16.2° C leicht bewölkt
Mo, 13.07. 8:30 15.5° C wolkenlos
Mo, 13.07. 8:20 15.5° C wolkenlos
Mo, 13.07. 8:10 15.0° C wolkenlos
Mo, 13.07. 8:00 15.1° C fast wolkenlos
Mo, 13.07. 7:30 14.0° C wolkenlos
Mo, 13.07. 7:00 12.5° C wolkenlos
Mo, 13.07. 6:30 11.1° C fast wolkenlos
Mo, 13.07. 6:00 9.9° C leicht bewölkt
Ortszeit Relative Feuchte Sichtweite
Mo, 13.07. 8:00 72% >70 km
Mo, 13.07. 2:00 91% 50 km
So, 12.07. 20:00 58% 65 km
So, 12.07. 14:00 53% 40 km
So, 12.07. 8:00 81% >70 km
So, 12.07. 2:00 95% 45 km
Sa, 11.07. 20:00 57% 55 km
Sa, 11.07. 14:00 53% >70 km
Ortszeit Relative Feuchte Sichtweite
Mo, 13.07. 9:00 61% >70 km
Mo, 13.07. 8:50 61% -
Mo, 13.07. 8:40 61% -
Mo, 13.07. 8:30 69% >70 km
Mo, 13.07. 8:20 69% -
Mo, 13.07. 8:10 71% -
Mo, 13.07. 8:00 72% >70 km
Mo, 13.07. 7:30 79% 60 km
Mo, 13.07. 7:00 84% 45 km
Mo, 13.07. 6:30 90% 45 km
Mo, 13.07. 6:00 93% 45 km
Ortszeit Niederschlagsmenge Niederschlagsart
Mo, 13.07. 8:00 0.0 l/m2 in 12 Std. -
Mo, 13.07. 2:00 0.0 l/m2 in 6 Std. -
So, 12.07. 20:00 0.0 l/m2 in 12 Std. -
So, 12.07. 14:00 0.0 l/m2 in 6 Std. -
So, 12.07. 8:00 0.2 l/m2 in 12 Std. -
So, 12.07. 2:00 0.2 l/m2 in 6 Std. Regen
Sa, 11.07. 20:00 0.1 l/m2 in 12 Std. Regen
Sa, 11.07. 14:00 0.0 l/m2 in 6 Std. -
Ortszeit Niederschlagsmenge Niederschlagsart
Mo, 13.07. 9:00 0.0 l/m2 in 1 Std. -
Mo, 13.07. 8:50 keine Meldung -
Mo, 13.07. 8:40 keine Meldung -
Mo, 13.07. 8:30 0.0 l/m2 in 1 Std. -
Mo, 13.07. 8:20 keine Meldung -
Mo, 13.07. 8:10 keine Meldung -
Mo, 13.07. 8:00 0.0 l/m2 in 1 Std. -
Mo, 13.07. 7:30 0.0 l/m2 in 1 Std. -
Mo, 13.07. 7:00 0.0 l/m2 in 1 Std. -
Mo, 13.07. 6:30 0.0 l/m2 in 1 Std. -
Mo, 13.07. 6:00 0.0 l/m2 in 1 Std. -
Ortszeit Stärke Spitze Richtung
km/h Bft. km/h Grad Sektor
Mo, 13.07. 8:00 7 2 11 320° NW
Mo, 13.07. 2:00 9 2 19 270° W
So, 12.07. 20:00 13 3 33 310° NW
So, 12.07. 14:00 20 4 33 290° W
So, 12.07. 8:00 9 2 19 290° W
So, 12.07. 2:00 4 1 36 300° NW
Sa, 11.07. 20:00 11 2 36 300° NW
Sa, 11.07. 14:00 22 4 37 260° W
Ortszeit Stärke Spitze Richtung
km/h Bft. km/h Grad Sektor
Mo, 13.07. 9:00 13 3 19 310° NW
Mo, 13.07. 8:50 13 3 - 310° NW
Mo, 13.07. 8:40 9 2 - 310° NW
Mo, 13.07. 8:30 7 2 14 300° NW
Mo, 13.07. 8:20 7 2 - 300° NW
Mo, 13.07. 8:10 7 2 - 280° W
Mo, 13.07. 8:00 7 2 11 320° NW
Mo, 13.07. 7:30 4 1 11 260° W
Mo, 13.07. 7:00 6 1 11 250° W
Mo, 13.07. 6:30 6 1 11 260° W
Mo, 13.07. 6:00 4 1 7 260° W
Ortszeit Untergrenze Bedeckung Gattung
total tief tief mittel hoch
Mo, 13.07. 8:00 10500 m 1/8 0/8 - - -
Mo, 13.07. 2:00 - 0/8 0/8 - - -
So, 12.07. 20:00 1800 m 8/8 8/8 - - -
So, 12.07. 14:00 1320 m 6/8 6/8 - - -
So, 12.07. 8:00 - 0/8 0/8 - - -
So, 12.07. 2:00 1020 m 2/8 1/8 - - -
Sa, 11.07. 20:00 - 0/8 0/8 - - -
Sa, 11.07. 14:00 1230 m 7/8 7/8 - - -
Ortszeit Bedeckungsgrad in Achtel und Wolkenuntergrenze
Mo, 13.07. 9:00 6(10500m) 6(10500m)
Mo, 13.07. 8:50 6(10500m) 6(10500m)
Mo, 13.07. 8:40 4(10500m)
Mo, 13.07. 8:30 1(10500m)
Mo, 13.07. 8:20 keine Wolken
Mo, 13.07. 8:10 keine Wolken
Mo, 13.07. 8:00 1(10500m)
Mo, 13.07. 7:30 keine Wolken
Mo, 13.07. 7:00 keine Wolken
Mo, 13.07. 6:30 1(10500m)
Mo, 13.07. 6:00 2(2400m) 3(9000m) 5(9000m)
Ortszeit Luftdruck NN (hPa) Tendenz (hPa in 3 Std.)
Mo, 13.07. 8:00 1025 - 0,1
Mo, 13.07. 2:00 1026 - 0,3
So, 12.07. 20:00 1026 - 0,1
So, 12.07. 14:00 1026 - 0,1
So, 12.07. 8:00 1026 + 1,1
So, 12.07. 2:00 1025 + 0,3
Sa, 11.07. 20:00 1023 + 1,0
Sa, 11.07. 14:00 1022 + 1,0
Ortszeit Luftdruck NN (hPa) Tendenz (hPa in 3 Std.)
Mo, 13.07. 9:00 1025 - 0,2
Mo, 13.07. 8:50 1025 keine Meldung
Mo, 13.07. 8:40 1025 keine Meldung
Mo, 13.07. 8:30 1025 - 0,1
Mo, 13.07. 8:20 1025 keine Meldung
Mo, 13.07. 8:10 1025 keine Meldung
Mo, 13.07. 8:00 1025 - 0,1
Mo, 13.07. 7:30 1025 - 0,3
Mo, 13.07. 7:00 1026 - 0,3
Mo, 13.07. 6:30 1026 - 0,3
Mo, 13.07. 6:00 1026 - 0,4
Ortszeit Schneehöhe (cm)
Mo, 13.07. 8:00 -
Mo, 13.07. 2:00 -
So, 12.07. 20:00 -
So, 12.07. 14:00 -
So, 12.07. 8:00 -
So, 12.07. 2:00 -
Sa, 11.07. 20:00 -
Sa, 11.07. 14:00 -
Ortszeit Schneehöhe (cm)
Mo, 13.07. 9:00 -
Mo, 13.07. 8:50 -
Mo, 13.07. 8:40 -
Mo, 13.07. 8:30 -
Mo, 13.07. 8:20 -
Mo, 13.07. 8:10 -
Mo, 13.07. 8:00 -
Mo, 13.07. 7:30 -
Mo, 13.07. 7:00 -
Mo, 13.07. 6:30 -
Mo, 13.07. 6:00 -
Link zu dieser Seite / Seite empfehlen

Das Wetter in ...